Otros METAR

 

LEAS - Asturias/Aviles, Spain
Distance from station: NNE 0km
Actualización: 17/04/2024 14:30
Parcialmente nuboso
Parcialmente nuboso
 Viento del ENE
Viento: ENE 9 km/h
Temperatura: 14°C
Rocío: 9°C
Humedad: 72%
Barómetro: 1023 hPa
Clouds: Parcialmente nuboso
Visibility: 10 km
Cloud details: Parcialmente nuboso 1280 m
2024/04/17 12:30 LEAS 171230Z 06005KT 330V110 9999 SCT042 14/09 Q1023 NOSIG
LELN - Leon/Virgen Cami, Spain
Distance from station: SSE 113km
Actualización: 17/04/2024 14:30
Despejado
Despejado
 Viento del SE
Viento: SE 13 km/h
Temperatura: 15°C
Rocío: 3°C
Humedad: 45%
Barómetro: 1019 hPa
Resumen: Despejado
Visibility: greater than 10 km
2024/04/17 12:30 LELN 171230Z 13007KT 080V170 CAVOK 15/03 Q1019
 
LEXJ - Santander/Paraya, Spain
Distance from station: E 180km
Actualización: 17/04/2024 14:30
Parcialmente nuboso
Parcialmente nuboso
 Viento del NNO
Viento: NNO 11 km/h
Temperatura: 14°C
Rocío: 9°C
Humedad: 72%
Barómetro: 1023 hPa
Clouds: Parcialmente nuboso
Visibility: 10 km
Cloud details: Parcialmente nuboso 792 m
Parcialmente nuboso 1463 m
2024/04/17 12:30 LEXJ 171230Z 34006KT 280V030 9999 SCT026 SCT048 14/09 Q1023
LECO - La Coruna/Alvedr, Spain
Distance from station: O 191km
Actualización: 17/04/2024 14:30
Algunas nubes
Algunas nubes
 Viento del NNE
Viento: NNE 20 km/h
Temperatura: 17°C
Rocío: 8°C
Humedad: 56%
Barómetro: 1021 hPa
Clouds: Algunas nubes
Visibility: 10 km
Cloud details: Algunas nubes 1067 m
2024/04/17 12:30 LECO 171230Z 03011KT 300V070 9999 FEW035 17/08 Q1021 NOSIG
 
LEST - Santiago/Labacol, Spain
Distance from station: OSO 207km
Actualización: 17/04/2024 14:30
Algunas nubes
Algunas nubes
 Viento del ENE
Viento: ENE 24 km/h
Temperatura: 15°C
Rocío: 6°C
Humedad: 55%
Barómetro: 1020 hPa
Clouds: Algunas nubes
Visibility: 10 km
Cloud details: Algunas nubes 914 m
2024/04/17 12:30 LEST 171230Z 06013KT 010V100 9999 FEW030 15/06 Q1020 NOSIG
LEVD - Valladolid(Mil/C, Spain
Distance from station: SSE 227km
Actualización: 17/04/2024 14:30
Algunas nubes
Algunas nubes
 Viento del ENE
Viento: ENE 17 km/h
Temperatura: 13°C
Rocío: 4°C
Humedad: 55%
Barómetro: 1019 hPa
Clouds: Algunas nubes
Visibility: 10 km
Cloud details: Algunas nubes 914 m
2024/04/17 12:30 LEVD 171230Z 07009KT 040V110 9999 FEW030 13/04 Q1019
 
LEBG - Burgos/Villafria, Spain
Distance from station: ESE 238km
Actualización: 17/04/2024 14:30
Muy nuboso
Muy nuboso
 Viento del NE
Viento: NE 24 km/h
Temperatura: 11°C
Rocío: 3°C
Humedad: 58%
Barómetro: 1020 hPa
Clouds: Muy nuboso
Visibility: 10 km
Cloud details: Muy nuboso 1067 m
2024/04/17 12:30 LEBG 171230Z 04013KT 360V080 9999 BKN035 11/03 Q1020
LEBB - Bilbao/Sondica, Spain
Distance from station: E 254km
Actualización: 17/04/2024 14:30
Muy nuboso
Muy nuboso
 Viento del NO
Viento: NO 13 km/h
Temperatura: 13°C
Rocío: 10°C
Humedad: 82%
Barómetro: 1022 hPa
Clouds: Muy nuboso
Visibility: 10 km
Cloud details: Parcialmente nuboso 610 m
Muy nuboso 945 m
2024/04/17 12:30 LEBB 171230Z 31007KT 240V020 9999 SCT020 BKN031 13/10 Q1022 NOSIG
 
LEVX - Vigo/Peinador, Spain
Distance from station: SO 257km
Actualización: 17/04/2024 14:30
Despejado
Despejado
 Viento del NE
Viento: NE 20 km/h
Temperatura: 20°C
Rocío: 6°C
Humedad: 40%
Barómetro: 1017 hPa
Resumen: Despejado
Visibility: greater than 10 km
2024/04/17 12:30 LEVX 171230Z 04011KT 360V070 CAVOK 20/06 Q1017 NOSIG
LEVT - Vitoria, Spain
Distance from station: ESE 280km
Actualización: 17/04/2024 14:30
Muy nuboso
Muy nuboso
 Viento del N
Viento: N 22 km/h
Temperatura: 11°C
Rocío: 6°C
Humedad: 72%
Barómetro: 1021 hPa
Clouds: Muy nuboso
Visibility: 10 km
Cloud details: Muy nuboso 701 m
Muy nuboso 1402 m
2024/04/17 12:30 LEVT 171230Z 36012KT 330V050 9999 BKN023 BKN046 11/06 Q1021
 
LESA - Salamanca (civ/M, Spain
Distance from station: S 294km
Actualización: 17/04/2024 14:30
Despejado
Despejado
 Viento del ENE
Viento: ENE 20 km/h
Temperatura: 15°C
Rocío: 4°C
Humedad: 48%
Barómetro: 1018 hPa
Resumen: Despejado
Visibility: greater than 10 km
2024/04/17 12:30 LESA 171230Z 07011KT 020V110 CAVOK 15/04 Q1018
LELO - Logrono/Agoncill, Spain
Distance from station: ESE 327km
Actualización: 17/04/2024 14:30
Muy nuboso
Muy nuboso
 Viento del NO
Viento: NO 15 km/h
Temperatura: 16°C
Rocío: 5°C
Humedad: 48%
Barómetro: 1020 hPa
Clouds: Muy nuboso
Visibility: 10 km
Cloud details: Muy nuboso 1372 m
2024/04/17 12:30 LELO 171230Z 31008KT 250V030 9999 BKN045 16/05 Q1020
 
LPPR - Porto/Pedras Rub, Portugal
Distance from station: SO 338km
Actualización: 17/04/2024 14:30
Despejado
Despejado
 Viento del ENE
Viento: ENE 11 km/h
Temperatura: 24°C
Rocío: 10°C
Humedad: 41%
Barómetro: 1015 hPa
Resumen: Despejado
Visibility: greater than 10 km
2024/04/17 12:30 LPPR 171230Z 06006KT 360V130 CAVOK 24/10 Q1015
LESO - San Sebastian/Fu, Spain
Distance from station: E 343km
Actualización: 17/04/2024 14:30
Muy nuboso
Muy nuboso
 Viento del ONO
Viento: ONO 13 km/h
Temperatura: 13°C
Rocío: 7°C
Humedad: 67%
Barómetro: 1022 hPa
Clouds: Muy nuboso
Visibility: 10 km
Cloud details: Parcialmente nuboso 914 m
Muy nuboso 1768 m
2024/04/17 12:30 LESO 171230Z 30007KT 240V020 9999 SCT030 BKN058 13/07 Q1022
 
LFBZ - Biarritz/Anglet, France
Distance from station: E 363km
Actualización: 17/04/2024 14:30
Muy nuboso
Muy nuboso
 Viento del NO
Viento: NO 17 km/h
Temperatura: 13°C
Rocío: 8°C
Humedad: 72%
Barómetro: 1021 hPa
Clouds: Muy nuboso
Visibility: 10 km
Cloud details: Algunas nubes 762 m
Muy nuboso 914 m
Muy nuboso 1219 m
2024/04/17 12:30 LFBZ 171230Z AUTO 32009KT 280V360 9999 FEW025/// BKN030/// BKN040/// 13/08 Q1021 NOSIG
LPOV - Ovar Mil, Portugal
Distance from station: SO 365km
Actualización: 17/04/2024 14:00
Despejado
Despejado
 Viento del N
Viento: N 13 km/h
Temperatura: 24°C
Rocío: 12°C
Humedad: 47%
Barómetro: 1015 hPa
Resumen: Despejado
Visibility: greater than 10 km
2024/04/17 12:00 LPOV 171200Z 01007KT 340V050 CAVOK 24/12 Q1015
 
LEPP - Pamplona/Noain, Spain
Distance from station: ESE 366km
Actualización: 17/04/2024 14:30
Muy nuboso
Muy nuboso
 Viento del NNO
Viento: NNO 26 km/h
Temperatura: 11°C
Rocío: 6°C
Humedad: 72%
Barómetro: 1020 hPa
Clouds: Muy nuboso
Visibility: 10 km
Cloud details: Algunas nubes 610 m
Parcialmente nuboso 853 m
Muy nuboso 1097 m
2024/04/17 12:30 LEPP 171230Z 34014KT 9999 FEW020 SCT028 BKN036 11/06 Q1020
LECV - Madri-Colmenar, Spain
Distance from station: SSE 372km
Actualización: 17/04/2024 14:30
Algunas nubes
Algunas nubes
 Viento del varies
Viento: varies 4 km/h
Temperatura: 15°C
Rocío: 7°C
Humedad: 59%
Barómetro: 1017 hPa
Clouds: Algunas nubes
Visibility: 10 km
Cloud details: Algunas nubes 914 m
2024/04/17 12:30 LECV 171230Z VRB02KT 9999 FEW030 15/07 Q1017
 
LFBY - Dax/Seyresse, France
Distance from station: E 400km
Actualización: 17/04/2024 14:30

 Viento del NO
Viento: NO 15 km/h
Temperatura: 15°C
Rocío: 6°C
Humedad: 55%
Barómetro: 1020 hPa
Visibility: 10 km
2024/04/17 12:30 LFBY 171230Z AUTO 32008KT 270V350 9999 // ////// 15/06 Q1020
LEVS - Madrid/Cuatro Vi, Spain
Distance from station: SSE 401km
Actualización: 17/04/2024 14:30
Despejado
Despejado
 Viento del SE
Viento: SE 6 km/h
Temperatura: 18°C
Rocío: 5°C
Humedad: 43%
Barómetro: 1016 hPa
Resumen: Despejado
Visibility: greater than 10 km
2024/04/17 12:30 LEVS 171230Z 13003KT CAVOK 18/05 Q1016